sensor_id;sensor_type;location;lat;lon;timestamp;P1;durP1;ratioP1;P2;durP2;ratioP2
15120;SDS011;7661;48.904;9.414;2022-07-10T00:00:27;8.93;;;4.53;;
15120;SDS011;7661;48.904;9.414;2022-07-10T00:02:55;10.63;;;4.40;;
15120;SDS011;7661;48.904;9.414;2022-07-10T00:05:23;6.97;;;5.00;;
15120;SDS011;7661;48.904;9.414;2022-07-10T00:07:51;8.60;;;4.70;;
15120;SDS011;7661;48.904;9.414;2022-07-10T00:10:18;10.57;;;5.77;;
15120;SDS011;7661;48.904;9.414;2022-07-10T00:12:46;11.50;;;4.80;;
15120;SDS011;7661;48.904;9.414;2022-07-10T00:15:13;9.23;;;5.27;;
15120;SDS011;7661;48.904;9.414;2022-07-10T00:17:41;9.00;;;5.00;;
15120;SDS011;7661;48.904;9.414;2022-07-10T00:20:09;12.97;;;5.63;;
15120;SDS011;7661;48.904;9.414;2022-07-10T00:22:37;9.17;;;5.03;;
15120;SDS011;7661;48.904;9.414;2022-07-10T00:25:06;12.53;;;4.90;;
15120;SDS011;7661;48.904;9.414;2022-07-10T00:27:35;12.77;;;6.07;;
15120;SDS011;7661;48.904;9.414;2022-07-10T00:30:02;8.80;;;5.10;;
15120;SDS011;7661;48.904;9.414;2022-07-10T00:32:29;11.17;;;5.80;;
15120;SDS011;7661;48.904;9.414;2022-07-10T00:34:56;11.00;;;5.90;;
15120;SDS011;7661;48.904;9.414;2022-07-10T00:37:23;10.30;;;4.80;;
15120;SDS011;7661;48.904;9.414;2022-07-10T00:39:50;14.43;;;6.20;;
15120;SDS011;7661;48.904;9.414;2022-07-10T00:42:18;10.73;;;5.70;;
15120;SDS011;7661;48.904;9.414;2022-07-10T00:44:46;13.23;;;5.30;;
15120;SDS011;7661;48.904;9.414;2022-07-10T00:47:13;9.50;;;5.67;;
15120;SDS011;7661;48.904;9.414;2022-07-10T00:49:42;9.93;;;5.53;;
15120;SDS011;7661;48.904;9.414;2022-07-10T00:52:10;7.27;;;5.17;;
15120;SDS011;7661;48.904;9.414;2022-07-10T00:54:39;9.77;;;5.33;;
15120;SDS011;7661;48.904;9.414;2022-07-10T00:57:08;8.03;;;4.73;;
15120;SDS011;7661;48.904;9.414;2022-07-10T00:59:37;12.23;;;5.93;;
15120;SDS011;7661;48.904;9.414;2022-07-10T01:02:04;12.43;;;6.10;;
15120;SDS011;7661;48.904;9.414;2022-07-10T01:04:32;7.43;;;5.40;;
15120;SDS011;7661;48.904;9.414;2022-07-10T01:06:59;12.30;;;6.03;;
15120;SDS011;7661;48.904;9.414;2022-07-10T01:09:26;34.33;;;6.40;;
15120;SDS011;7661;48.904;9.414;2022-07-10T01:11:54;13.23;;;6.30;;
15120;SDS011;7661;48.904;9.414;2022-07-10T01:14:22;9.73;;;6.23;;
15120;SDS011;7661;48.904;9.414;2022-07-10T01:16:51;14.90;;;5.37;;
15120;SDS011;7661;48.904;9.414;2022-07-10T01:19:19;8.10;;;5.07;;
15120;SDS011;7661;48.904;9.414;2022-07-10T01:21:47;8.50;;;5.50;;
15120;SDS011;7661;48.904;9.414;2022-07-10T01:24:14;7.70;;;6.00;;
15120;SDS011;7661;48.904;9.414;2022-07-10T01:26:41;6.53;;;5.23;;
15120;SDS011;7661;48.904;9.414;2022-07-10T01:29:08;8.70;;;5.60;;
15120;SDS011;7661;48.904;9.414;2022-07-10T01:31:36;6.93;;;4.67;;
15120;SDS011;7661;48.904;9.414;2022-07-10T01:34:05;7.20;;;4.80;;
15120;SDS011;7661;48.904;9.414;2022-07-10T01:36:34;8.73;;;4.63;;
15120;SDS011;7661;48.904;9.414;2022-07-10T01:39:03;6.10;;;4.40;;
15120;SDS011;7661;48.904;9.414;2022-07-10T01:41:30;8.60;;;5.60;;
15120;SDS011;7661;48.904;9.414;2022-07-10T01:43:57;9.40;;;5.27;;
15120;SDS011;7661;48.904;9.414;2022-07-10T01:46:24;7.27;;;4.80;;
15120;SDS011;7661;48.904;9.414;2022-07-10T01:48:51;7.87;;;4.63;;
15120;SDS011;7661;48.904;9.414;2022-07-10T01:51:18;8.27;;;4.93;;
15120;SDS011;7661;48.904;9.414;2022-07-10T01:53:45;8.57;;;5.73;;
15120;SDS011;7661;48.904;9.414;2022-07-10T01:56:14;9.70;;;5.40;;
15120;SDS011;7661;48.904;9.414;2022-07-10T01:58:41;8.63;;;5.57;;
15120;SDS011;7661;48.904;9.414;2022-07-10T02:01:08;8.17;;;5.37;;
15120;SDS011;7661;48.904;9.414;2022-07-10T02:03:36;14.90;;;5.80;;
15120;SDS011;7661;48.904;9.414;2022-07-10T02:06:21;11.33;;;5.37;;
15120;SDS011;7661;48.904;9.414;2022-07-10T02:08:48;13.00;;;6.80;;
15120;SDS011;7661;48.904;9.414;2022-07-10T02:11:17;10.17;;;6.20;;
15120;SDS011;7661;48.904;9.414;2022-07-10T02:13:45;17.40;;;7.20;;
15120;SDS011;7661;48.904;9.414;2022-07-10T02:16:12;10.90;;;6.40;;
15120;SDS011;7661;48.904;9.414;2022-07-10T02:18:39;11.20;;;6.70;;
15120;SDS011;7661;48.904;9.414;2022-07-10T02:21:06;9.20;;;5.80;;
15120;SDS011;7661;48.904;9.414;2022-07-10T02:23:33;13.00;;;6.70;;
15120;SDS011;7661;48.904;9.414;2022-07-10T02:26:02;9.70;;;6.70;;
15120;SDS011;7661;48.904;9.414;2022-07-10T02:28:31;11.20;;;5.80;;
15120;SDS011;7661;48.904;9.414;2022-07-10T02:30:58;7.83;;;5.77;;
15120;SDS011;7661;48.904;9.414;2022-07-10T02:33:25;8.33;;;6.10;;
15120;SDS011;7661;48.904;9.414;2022-07-10T02:35:52;7.03;;;5.40;;
15120;SDS011;7661;48.904;9.414;2022-07-10T02:38:19;8.07;;;5.40;;
15120;SDS011;7661;48.904;9.414;2022-07-10T02:40:46;13.47;;;5.40;;
15120;SDS011;7661;48.904;9.414;2022-07-10T02:43:14;9.23;;;6.30;;
15120;SDS011;7661;48.904;9.414;2022-07-10T02:45:42;9.30;;;6.30;;
15120;SDS011;7661;48.904;9.414;2022-07-10T02:48:09;9.20;;;5.90;;
15120;SDS011;7661;48.904;9.414;2022-07-10T02:50:37;11.13;;;6.60;;
15120;SDS011;7661;48.904;9.414;2022-07-10T02:53:04;10.20;;;6.13;;
15120;SDS011;7661;48.904;9.414;2022-07-10T02:55:31;9.80;;;6.87;;
15120;SDS011;7661;48.904;9.414;2022-07-10T02:57:59;7.47;;;5.83;;
15120;SDS011;7661;48.904;9.414;2022-07-10T03:00:26;13.70;;;6.27;;
15120;SDS011;7661;48.904;9.414;2022-07-10T03:02:55;11.33;;;5.73;;
15120;SDS011;7661;48.904;9.414;2022-07-10T03:05:22;10.57;;;6.17;;
15120;SDS011;7661;48.904;9.414;2022-07-10T03:07:49;10.10;;;6.67;;
15120;SDS011;7661;48.904;9.414;2022-07-10T03:10:17;9.40;;;6.00;;
15120;SDS011;7661;48.904;9.414;2022-07-10T03:12:45;15.37;;;6.47;;
15120;SDS011;7661;48.904;9.414;2022-07-10T03:15:12;8.17;;;6.03;;
15120;SDS011;7661;48.904;9.414;2022-07-10T03:17:39;12.60;;;5.80;;
15120;SDS011;7661;48.904;9.414;2022-07-10T03:20:08;9.10;;;6.30;;
15120;SDS011;7661;48.904;9.414;2022-07-10T03:22:37;9.00;;;5.90;;
15120;SDS011;7661;48.904;9.414;2022-07-10T03:25:04;8.77;;;6.50;;
15120;SDS011;7661;48.904;9.414;2022-07-10T03:27:32;9.50;;;6.03;;
15120;SDS011;7661;48.904;9.414;2022-07-10T03:29:59;9.77;;;6.60;;
15120;SDS011;7661;48.904;9.414;2022-07-10T03:32:26;9.47;;;6.60;;
15120;SDS011;7661;48.904;9.414;2022-07-10T03:34:53;7.03;;;5.13;;
15120;SDS011;7661;48.904;9.414;2022-07-10T03:37:22;9.90;;;6.13;;
15120;SDS011;7661;48.904;9.414;2022-07-10T03:39:49;9.23;;;5.47;;
15120;SDS011;7661;48.904;9.414;2022-07-10T03:42:16;12.47;;;5.57;;
15120;SDS011;7661;48.904;9.414;2022-07-10T03:44:43;9.03;;;5.50;;
15120;SDS011;7661;48.904;9.414;2022-07-10T03:47:10;10.53;;;5.90;;
15120;SDS011;7661;48.904;9.414;2022-07-10T03:49:37;8.47;;;5.67;;
15120;SDS011;7661;48.904;9.414;2022-07-10T03:52:06;10.33;;;5.77;;
15120;SDS011;7661;48.904;9.414;2022-07-10T03:54:35;9.53;;;5.50;;
15120;SDS011;7661;48.904;9.414;2022-07-10T03:57:02;6.40;;;5.20;;
15120;SDS011;7661;48.904;9.414;2022-07-10T03:59:48;7.70;;;5.23;;
15120;SDS011;7661;48.904;9.414;2022-07-10T04:02:15;10.27;;;5.90;;
15120;SDS011;7661;48.904;9.414;2022-07-10T04:04:42;7.73;;;5.40;;
15120;SDS011;7661;48.904;9.414;2022-07-10T04:07:10;7.70;;;5.27;;
15120;SDS011;7661;48.904;9.414;2022-07-10T04:09:39;7.10;;;5.47;;
15120;SDS011;7661;48.904;9.414;2022-07-10T04:12:06;11.30;;;5.77;;
15120;SDS011;7661;48.904;9.414;2022-07-10T04:14:33;10.43;;;5.87;;
15120;SDS011;7661;48.904;9.414;2022-07-10T04:17:00;10.73;;;5.70;;
15120;SDS011;7661;48.904;9.414;2022-07-10T04:19:28;7.27;;;5.23;;
15120;SDS011;7661;48.904;9.414;2022-07-10T04:21:55;9.73;;;4.80;;
15120;SDS011;7661;48.904;9.414;2022-07-10T04:24:22;8.80;;;5.40;;
15120;SDS011;7661;48.904;9.414;2022-07-10T04:26:51;12.33;;;5.90;;
15120;SDS011;7661;48.904;9.414;2022-07-10T04:29:18;7.20;;;5.20;;
15120;SDS011;7661;48.904;9.414;2022-07-10T04:31:45;8.07;;;5.10;;
15120;SDS011;7661;48.904;9.414;2022-07-10T04:34:12;6.87;;;4.87;;
15120;SDS011;7661;48.904;9.414;2022-07-10T04:36:39;8.17;;;5.60;;
15120;SDS011;7661;48.904;9.414;2022-07-10T04:39:06;9.40;;;5.77;;
15120;SDS011;7661;48.904;9.414;2022-07-10T04:41:33;10.10;;;6.20;;
15120;SDS011;7661;48.904;9.414;2022-07-10T04:44:17;8.77;;;5.50;;
15120;SDS011;7661;48.904;9.414;2022-07-10T04:46:46;8.63;;;5.47;;
15120;SDS011;7661;48.904;9.414;2022-07-10T04:49:13;7.27;;;5.07;;
15120;SDS011;7661;48.904;9.414;2022-07-10T04:51:41;10.90;;;4.43;;
15120;SDS011;7661;48.904;9.414;2022-07-10T04:54:08;6.50;;;4.77;;
15120;SDS011;7661;48.904;9.414;2022-07-10T04:56:37;9.40;;;5.80;;
15120;SDS011;7661;48.904;9.414;2022-07-10T04:59:05;8.37;;;5.07;;
15120;SDS011;7661;48.904;9.414;2022-07-10T05:01:36;8.23;;;5.60;;
15120;SDS011;7661;48.904;9.414;2022-07-10T05:04:03;8.07;;;5.10;;
15120;SDS011;7661;48.904;9.414;2022-07-10T05:06:30;8.93;;;4.50;;
15120;SDS011;7661;48.904;9.414;2022-07-10T05:08:57;11.00;;;5.20;;
15120;SDS011;7661;48.904;9.414;2022-07-10T05:11:24;10.43;;;5.47;;
15120;SDS011;7661;48.904;9.414;2022-07-10T05:13:52;6.93;;;4.30;;
15120;SDS011;7661;48.904;9.414;2022-07-10T05:29:35;10.97;;;5.30;;
15120;SDS011;7661;48.904;9.414;2022-07-10T05:32:02;13.63;;;4.73;;
15120;SDS011;7661;48.904;9.414;2022-07-10T05:34:42;9.20;;;5.30;;
15120;SDS011;7661;48.904;9.414;2022-07-10T05:37:09;9.90;;;5.17;;
15120;SDS011;7661;48.904;9.414;2022-07-10T05:39:37;7.20;;;4.20;;
15120;SDS011;7661;48.904;9.414;2022-07-10T05:42:04;10.67;;;4.30;;
15120;SDS011;7661;48.904;9.414;2022-07-10T05:44:32;11.00;;;4.40;;
15120;SDS011;7661;48.904;9.414;2022-07-10T05:47:00;9.00;;;4.33;;
15120;SDS011;7661;48.904;9.414;2022-07-10T05:49:27;7.07;;;3.87;;
15120;SDS011;7661;48.904;9.414;2022-07-10T05:51:54;6.63;;;3.20;;
15120;SDS011;7661;48.904;9.414;2022-07-10T05:54:21;7.23;;;3.40;;
15120;SDS011;7661;48.904;9.414;2022-07-10T05:56:48;8.27;;;4.07;;
15120;SDS011;7661;48.904;9.414;2022-07-10T05:59:16;12.37;;;3.53;;
15120;SDS011;7661;48.904;9.414;2022-07-10T06:01:43;11.40;;;3.33;;
15120;SDS011;7661;48.904;9.414;2022-07-10T06:04:11;10.60;;;3.30;;
15120;SDS011;7661;48.904;9.414;2022-07-10T06:06:38;6.20;;;3.33;;
15120;SDS011;7661;48.904;9.414;2022-07-10T06:09:08;8.57;;;3.30;;
15120;SDS011;7661;48.904;9.414;2022-07-10T06:11:35;7.43;;;3.40;;
15120;SDS011;7661;48.904;9.414;2022-07-10T06:14:02;9.47;;;3.40;;
15120;SDS011;7661;48.904;9.414;2022-07-10T06:16:29;13.93;;;2.97;;
15120;SDS011;7661;48.904;9.414;2022-07-10T06:18:56;4.43;;;2.30;;
15120;SDS011;7661;48.904;9.414;2022-07-10T06:21:26;7.33;;;2.50;;
15120;SDS011;7661;48.904;9.414;2022-07-10T06:23:53;6.70;;;2.30;;
15120;SDS011;7661;48.904;9.414;2022-07-10T06:26:20;9.70;;;2.80;;
15120;SDS011;7661;48.904;9.414;2022-07-10T06:28:53;10.80;;;2.47;;
15120;SDS011;7661;48.904;9.414;2022-07-10T06:31:20;5.23;;;2.43;;
15120;SDS011;7661;48.904;9.414;2022-07-10T06:33:47;5.77;;;2.30;;
15120;SDS011;7661;48.904;9.414;2022-07-10T06:36:14;5.70;;;2.20;;
15120;SDS011;7661;48.904;9.414;2022-07-10T06:38:43;4.73;;;2.33;;
15120;SDS011;7661;48.904;9.414;2022-07-10T06:41:10;5.73;;;2.13;;
15120;SDS011;7661;48.904;9.414;2022-07-10T06:43:37;5.03;;;2.50;;
15120;SDS011;7661;48.904;9.414;2022-07-10T06:48:48;5.43;;;1.67;;
15120;SDS011;7661;48.904;9.414;2022-07-10T06:51:15;6.80;;;2.07;;
15120;SDS011;7661;48.904;9.414;2022-07-10T06:53:44;7.27;;;1.90;;
15120;SDS011;7661;48.904;9.414;2022-07-10T06:56:12;7.83;;;2.37;;
15120;SDS011;7661;48.904;9.414;2022-07-10T06:59:00;6.10;;;1.93;;
15120;SDS011;7661;48.904;9.414;2022-07-10T07:01:41;4.87;;;2.27;;
15120;SDS011;7661;48.904;9.414;2022-07-10T07:04:08;3.70;;;1.80;;
15120;SDS011;7661;48.904;9.414;2022-07-10T07:06:35;4.67;;;1.70;;
15120;SDS011;7661;48.904;9.414;2022-07-10T07:09:17;4.70;;;1.90;;
15120;SDS011;7661;48.904;9.414;2022-07-10T07:11:58;5.00;;;1.43;;
15120;SDS011;7661;48.904;9.414;2022-07-10T07:18:34;4.10;;;1.50;;
15120;SDS011;7661;48.904;9.414;2022-07-10T07:21:15;10.80;;;2.27;;
15120;SDS011;7661;48.904;9.414;2022-07-10T07:24:00;6.47;;;1.73;;
15120;SDS011;7661;48.904;9.414;2022-07-10T07:29:24;5.90;;;1.90;;
15120;SDS011;7661;48.904;9.414;2022-07-10T07:32:38;3.30;;;1.80;;
15120;SDS011;7661;48.904;9.414;2022-07-10T07:35:31;4.60;;;1.70;;
15120;SDS011;7661;48.904;9.414;2022-07-10T07:38:12;3.53;;;1.47;;
15120;SDS011;7661;48.904;9.414;2022-07-10T07:40:53;5.93;;;1.73;;
15120;SDS011;7661;48.904;9.414;2022-07-10T07:43:21;9.80;;;2.30;;
15120;SDS011;7661;48.904;9.414;2022-07-10T07:46:02;3.63;;;1.73;;
15120;SDS011;7661;48.904;9.414;2022-07-10T07:48:30;5.30;;;1.90;;
15120;SDS011;7661;48.904;9.414;2022-07-10T07:50:57;7.63;;;2.07;;
15120;SDS011;7661;48.904;9.414;2022-07-10T07:53:24;7.70;;;1.97;;
15120;SDS011;7661;48.904;9.414;2022-07-10T07:55:51;5.90;;;1.97;;
15120;SDS011;7661;48.904;9.414;2022-07-10T07:58:46;7.40;;;1.90;;
15120;SDS011;7661;48.904;9.414;2022-07-10T08:01:13;7.53;;;1.80;;
15120;SDS011;7661;48.904;9.414;2022-07-10T08:03:41;7.97;;;1.53;;
15120;SDS011;7661;48.904;9.414;2022-07-10T08:06:08;6.47;;;1.80;;
15120;SDS011;7661;48.904;9.414;2022-07-10T08:08:35;4.37;;;1.70;;
15120;SDS011;7661;48.904;9.414;2022-07-10T08:11:04;3.23;;;1.37;;
15120;SDS011;7661;48.904;9.414;2022-07-10T08:13:33;6.33;;;1.80;;
15120;SDS011;7661;48.904;9.414;2022-07-10T08:16:15;5.70;;;1.70;;
15120;SDS011;7661;48.904;9.414;2022-07-10T08:18:42;7.07;;;1.70;;
15120;SDS011;7661;48.904;9.414;2022-07-10T08:21:21;6.27;;;2.00;;
15120;SDS011;7661;48.904;9.414;2022-07-10T08:23:49;8.57;;;1.80;;
15120;SDS011;7661;48.904;9.414;2022-07-10T08:26:16;7.50;;;1.60;;
15120;SDS011;7661;48.904;9.414;2022-07-10T08:28:57;5.77;;;1.77;;
15120;SDS011;7661;48.904;9.414;2022-07-10T08:31:39;3.53;;;1.73;;
15120;SDS011;7661;48.904;9.414;2022-07-10T08:34:07;4.70;;;1.50;;
15120;SDS011;7661;48.904;9.414;2022-07-10T08:36:47;5.47;;;1.50;;
15120;SDS011;7661;48.904;9.414;2022-07-10T08:39:16;10.40;;;1.80;;
15120;SDS011;7661;48.904;9.414;2022-07-10T08:45:18;8.50;;;1.40;;
15120;SDS011;7661;48.904;9.414;2022-07-10T08:47:56;7.80;;;1.63;;
15120;SDS011;7661;48.904;9.414;2022-07-10T08:50:42;3.20;;;1.27;;
15120;SDS011;7661;48.904;9.414;2022-07-10T08:54:04;4.70;;;1.40;;
15120;SDS011;7661;48.904;9.414;2022-07-10T08:56:45;6.33;;;1.53;;
15120;SDS011;7661;48.904;9.414;2022-07-10T08:59:39;5.50;;;2.03;;
15120;SDS011;7661;48.904;9.414;2022-07-10T09:02:20;2.97;;;1.50;;
15120;SDS011;7661;48.904;9.414;2022-07-10T09:04:48;3.73;;;1.50;;
15120;SDS011;7661;48.904;9.414;2022-07-10T09:10:26;8.90;;;1.70;;
15120;SDS011;7661;48.904;9.414;2022-07-10T09:12:55;7.50;;;1.83;;
15120;SDS011;7661;48.904;9.414;2022-07-10T09:15:38;10.70;;;1.90;;
15120;SDS011;7661;48.904;9.414;2022-07-10T09:18:19;3.90;;;1.43;;
15120;SDS011;7661;48.904;9.414;2022-07-10T09:21:15;4.43;;;1.50;;
15120;SDS011;7661;48.904;9.414;2022-07-10T09:26:39;7.97;;;3.00;;
15120;SDS011;7661;48.904;9.414;2022-07-10T09:32:39;5.40;;;2.10;;
15120;SDS011;7661;48.904;9.414;2022-07-10T09:35:20;5.13;;;1.73;;
15120;SDS011;7661;48.904;9.414;2022-07-10T09:58:38;5.23;;;1.83;;
15120;SDS011;7661;48.904;9.414;2022-07-10T10:01:06;4.80;;;1.80;;
15120;SDS011;7661;48.904;9.414;2022-07-10T10:03:40;4.03;;;1.20;;
15120;SDS011;7661;48.904;9.414;2022-07-10T10:07:03;5.53;;;2.30;;
15120;SDS011;7661;48.904;9.414;2022-07-10T10:09:51;3.47;;;1.13;;
15120;SDS011;7661;48.904;9.414;2022-07-10T10:12:42;9.30;;;1.53;;
15120;SDS011;7661;48.904;9.414;2022-07-10T10:15:37;3.13;;;1.50;;
15120;SDS011;7661;48.904;9.414;2022-07-10T10:18:24;7.43;;;2.70;;
15120;SDS011;7661;48.904;9.414;2022-07-10T10:20:52;6.70;;;1.77;;
15120;SDS011;7661;48.904;9.414;2022-07-10T10:26:57;6.43;;;2.53;;
15120;SDS011;7661;48.904;9.414;2022-07-10T10:29:26;7.43;;;1.73;;
15120;SDS011;7661;48.904;9.414;2022-07-10T10:32:14;2.70;;;1.50;;
15120;SDS011;7661;48.904;9.414;2022-07-10T10:34:43;7.00;;;1.80;;
15120;SDS011;7661;48.904;9.414;2022-07-10T10:37:32;2.90;;;1.50;;
15120;SDS011;7661;48.904;9.414;2022-07-10T10:40:34;3.67;;;1.23;;
15120;SDS011;7661;48.904;9.414;2022-07-10T10:45:44;4.63;;;1.47;;
15120;SDS011;7661;48.904;9.414;2022-07-10T10:50:58;5.10;;;1.47;;
15120;SDS011;7661;48.904;9.414;2022-07-10T10:53:57;5.33;;;1.67;;
15120;SDS011;7661;48.904;9.414;2022-07-10T10:56:44;4.57;;;1.20;;
15120;SDS011;7661;48.904;9.414;2022-07-10T10:59:53;6.60;;;1.47;;
15120;SDS011;7661;48.904;9.414;2022-07-10T11:02:21;5.83;;;1.10;;
15120;SDS011;7661;48.904;9.414;2022-07-10T11:08:40;3.87;;;1.20;;
15120;SDS011;7661;48.904;9.414;2022-07-10T11:18:18;4.83;;;1.40;;
15120;SDS011;7661;48.904;9.414;2022-07-10T11:21:00;3.93;;;1.20;;
15120;SDS011;7661;48.904;9.414;2022-07-10T11:24:39;5.00;;;1.33;;
15120;SDS011;7661;48.904;9.414;2022-07-10T11:30:09;4.43;;;1.20;;
15120;SDS011;7661;48.904;9.414;2022-07-10T11:32:37;2.90;;;1.20;;
15120;SDS011;7661;48.904;9.414;2022-07-10T11:35:05;3.40;;;1.13;;
15120;SDS011;7661;48.904;9.414;2022-07-10T11:37:34;4.60;;;1.30;;
15120;SDS011;7661;48.904;9.414;2022-07-10T11:40:11;2.73;;;1.20;;
15120;SDS011;7661;48.904;9.414;2022-07-10T11:45:20;4.67;;;1.40;;
15120;SDS011;7661;48.904;9.414;2022-07-10T11:47:51;3.83;;;1.30;;
15120;SDS011;7661;48.904;9.414;2022-07-10T11:50:18;4.97;;;1.20;;
15120;SDS011;7661;48.904;9.414;2022-07-10T11:52:45;4.50;;;1.17;;
15120;SDS011;7661;48.904;9.414;2022-07-10T11:55:16;5.87;;;1.30;;
15120;SDS011;7661;48.904;9.414;2022-07-10T11:57:44;5.13;;;1.13;;
15120;SDS011;7661;48.904;9.414;2022-07-10T12:00:23;7.00;;;1.40;;
15120;SDS011;7661;48.904;9.414;2022-07-10T12:02:51;3.47;;;1.40;;
15120;SDS011;7661;48.904;9.414;2022-07-10T12:05:35;5.87;;;1.23;;
15120;SDS011;7661;48.904;9.414;2022-07-10T12:08:03;6.83;;;1.27;;
15120;SDS011;7661;48.904;9.414;2022-07-10T12:10:33;5.53;;;1.20;;
15120;SDS011;7661;48.904;9.414;2022-07-10T12:13:05;3.67;;;1.17;;
15120;SDS011;7661;48.904;9.414;2022-07-10T12:15:35;3.67;;;1.20;;
15120;SDS011;7661;48.904;9.414;2022-07-10T12:18:04;6.03;;;1.20;;
15120;SDS011;7661;48.904;9.414;2022-07-10T12:20:32;3.00;;;1.07;;
15120;SDS011;7661;48.904;9.414;2022-07-10T12:22:59;4.30;;;1.53;;
15120;SDS011;7661;48.904;9.414;2022-07-10T12:25:26;6.50;;;1.23;;
15120;SDS011;7661;48.904;9.414;2022-07-10T12:27:58;4.50;;;1.83;;
15120;SDS011;7661;48.904;9.414;2022-07-10T12:30:41;5.07;;;1.23;;
15120;SDS011;7661;48.904;9.414;2022-07-10T12:33:09;4.47;;;1.30;;
15120;SDS011;7661;48.904;9.414;2022-07-10T12:35:50;6.13;;;1.43;;
15120;SDS011;7661;48.904;9.414;2022-07-10T12:38:20;5.83;;;1.47;;
15120;SDS011;7661;48.904;9.414;2022-07-10T12:40:49;2.90;;;0.90;;
15120;SDS011;7661;48.904;9.414;2022-07-10T12:43:27;4.03;;;1.20;;
15120;SDS011;7661;48.904;9.414;2022-07-10T12:46:11;3.07;;;1.00;;
15120;SDS011;7661;48.904;9.414;2022-07-10T12:48:40;11.20;;;1.23;;
15120;SDS011;7661;48.904;9.414;2022-07-10T12:51:19;3.97;;;1.17;;
15120;SDS011;7661;48.904;9.414;2022-07-10T12:53:47;6.00;;;1.10;;
15120;SDS011;7661;48.904;9.414;2022-07-10T12:56:25;2.13;;;0.90;;
15120;SDS011;7661;48.904;9.414;2022-07-10T12:58:54;3.37;;;1.00;;
15120;SDS011;7661;48.904;9.414;2022-07-10T13:01:21;3.70;;;1.27;;
15120;SDS011;7661;48.904;9.414;2022-07-10T13:03:48;3.53;;;1.03;;
15120;SDS011;7661;48.904;9.414;2022-07-10T13:06:26;2.70;;;1.20;;
15120;SDS011;7661;48.904;9.414;2022-07-10T13:08:54;3.43;;;0.93;;
15120;SDS011;7661;48.904;9.414;2022-07-10T13:11:21;5.60;;;1.30;;
15120;SDS011;7661;48.904;9.414;2022-07-10T13:13:48;2.37;;;1.20;;
15120;SDS011;7661;48.904;9.414;2022-07-10T13:16:17;5.47;;;1.07;;
15120;SDS011;7661;48.904;9.414;2022-07-10T13:18:44;4.10;;;1.50;;
15120;SDS011;7661;48.904;9.414;2022-07-10T13:21:11;10.23;;;1.10;;
15120;SDS011;7661;48.904;9.414;2022-07-10T13:23:38;3.77;;;1.20;;
15120;SDS011;7661;48.904;9.414;2022-07-10T13:26:06;6.70;;;1.07;;
15120;SDS011;7661;48.904;9.414;2022-07-10T13:28:34;2.33;;;1.20;;
15120;SDS011;7661;48.904;9.414;2022-07-10T13:31:01;2.40;;;1.10;;
15120;SDS011;7661;48.904;9.414;2022-07-10T13:33:29;2.87;;;1.00;;
15120;SDS011;7661;48.904;9.414;2022-07-10T13:35:58;4.10;;;1.30;;
15120;SDS011;7661;48.904;9.414;2022-07-10T13:38:26;2.67;;;0.80;;
15120;SDS011;7661;48.904;9.414;2022-07-10T13:40:53;3.60;;;1.00;;
15120;SDS011;7661;48.904;9.414;2022-07-10T13:43:20;6.40;;;1.30;;
15120;SDS011;7661;48.904;9.414;2022-07-10T13:45:52;2.47;;;0.90;;
15120;SDS011;7661;48.904;9.414;2022-07-10T13:48:19;2.53;;;1.00;;
15120;SDS011;7661;48.904;9.414;2022-07-10T13:50:47;2.67;;;0.90;;
15120;SDS011;7661;48.904;9.414;2022-07-10T13:53:14;2.90;;;0.90;;
15120;SDS011;7661;48.904;9.414;2022-07-10T13:55:42;4.40;;;1.30;;
15120;SDS011;7661;48.904;9.414;2022-07-10T13:58:09;5.67;;;1.03;;
15120;SDS011;7661;48.904;9.414;2022-07-10T14:00:37;3.23;;;1.10;;
15120;SDS011;7661;48.904;9.414;2022-07-10T14:03:04;3.10;;;1.00;;
15120;SDS011;7661;48.904;9.414;2022-07-10T14:05:32;2.90;;;0.93;;
15120;SDS011;7661;48.904;9.414;2022-07-10T14:08:01;5.80;;;1.23;;
15120;SDS011;7661;48.904;9.414;2022-07-10T14:10:28;4.37;;;1.27;;
15120;SDS011;7661;48.904;9.414;2022-07-10T14:12:56;2.40;;;0.90;;
15120;SDS011;7661;48.904;9.414;2022-07-10T14:15:23;3.33;;;1.10;;
15120;SDS011;7661;48.904;9.414;2022-07-10T14:17:50;2.87;;;1.07;;
15120;SDS011;7661;48.904;9.414;2022-07-10T14:20:16;2.10;;;0.87;;
15120;SDS011;7661;48.904;9.414;2022-07-10T14:22:43;3.33;;;1.23;;
15120;SDS011;7661;48.904;9.414;2022-07-10T14:25:13;8.50;;;1.20;;
15120;SDS011;7661;48.904;9.414;2022-07-10T14:27:40;2.57;;;0.97;;
15120;SDS011;7661;48.904;9.414;2022-07-10T14:30:08;3.90;;;0.90;;
15120;SDS011;7661;48.904;9.414;2022-07-10T14:32:35;3.10;;;0.97;;
15120;SDS011;7661;48.904;9.414;2022-07-10T14:35:02;3.77;;;1.30;;
15120;SDS011;7661;48.904;9.414;2022-07-10T14:37:29;2.93;;;0.90;;
15120;SDS011;7661;48.904;9.414;2022-07-10T14:39:56;4.67;;;1.23;;
15120;SDS011;7661;48.904;9.414;2022-07-10T14:42:24;1.93;;;0.90;;
15120;SDS011;7661;48.904;9.414;2022-07-10T14:44:51;2.90;;;1.00;;
15120;SDS011;7661;48.904;9.414;2022-07-10T14:47:18;3.50;;;1.00;;
15120;SDS011;7661;48.904;9.414;2022-07-10T14:49:45;3.50;;;1.20;;
15120;SDS011;7661;48.904;9.414;2022-07-10T14:52:12;2.40;;;1.03;;
15120;SDS011;7661;48.904;9.414;2022-07-10T14:54:41;2.40;;;0.90;;
15120;SDS011;7661;48.904;9.414;2022-07-10T14:57:08;2.03;;;0.90;;
15120;SDS011;7661;48.904;9.414;2022-07-10T14:59:36;2.33;;;0.90;;
15120;SDS011;7661;48.904;9.414;2022-07-10T15:02:03;3.50;;;0.87;;
15120;SDS011;7661;48.904;9.414;2022-07-10T15:04:30;4.50;;;0.93;;
15120;SDS011;7661;48.904;9.414;2022-07-10T15:06:57;3.17;;;1.00;;
15120;SDS011;7661;48.904;9.414;2022-07-10T15:09:24;4.47;;;1.10;;
15120;SDS011;7661;48.904;9.414;2022-07-10T15:11:51;4.10;;;1.20;;
15120;SDS011;7661;48.904;9.414;2022-07-10T15:14:19;4.87;;;1.20;;
15120;SDS011;7661;48.904;9.414;2022-07-10T15:16:48;2.50;;;0.90;;
15120;SDS011;7661;48.904;9.414;2022-07-10T15:19:15;1.73;;;0.80;;
15120;SDS011;7661;48.904;9.414;2022-07-10T15:21:42;3.67;;;0.97;;
15120;SDS011;7661;48.904;9.414;2022-07-10T15:24:09;3.67;;;1.00;;
15120;SDS011;7661;48.904;9.414;2022-07-10T15:26:35;4.33;;;0.90;;
15120;SDS011;7661;48.904;9.414;2022-07-10T15:29:02;4.00;;;1.00;;
15120;SDS011;7661;48.904;9.414;2022-07-10T15:31:29;2.80;;;1.00;;
15120;SDS011;7661;48.904;9.414;2022-07-10T15:33:57;5.17;;;0.97;;
15120;SDS011;7661;48.904;9.414;2022-07-10T15:36:24;2.97;;;1.10;;
15120;SDS011;7661;48.904;9.414;2022-07-10T15:38:51;4.10;;;1.13;;
15120;SDS011;7661;48.904;9.414;2022-07-10T15:41:18;3.00;;;1.10;;
15120;SDS011;7661;48.904;9.414;2022-07-10T15:43:45;2.70;;;0.80;;
15120;SDS011;7661;48.904;9.414;2022-07-10T15:46:11;3.17;;;1.07;;
15120;SDS011;7661;48.904;9.414;2022-07-10T15:48:40;11.00;;;1.00;;
15120;SDS011;7661;48.904;9.414;2022-07-10T15:51:08;4.90;;;0.97;;
15120;SDS011;7661;48.904;9.414;2022-07-10T15:53:35;3.70;;;1.20;;
15120;SDS011;7661;48.904;9.414;2022-07-10T15:56:02;2.53;;;0.93;;
15120;SDS011;7661;48.904;9.414;2022-07-10T15:58:30;2.87;;;1.00;;
15120;SDS011;7661;48.904;9.414;2022-07-10T16:00:57;2.53;;;0.90;;
15120;SDS011;7661;48.904;9.414;2022-07-10T16:03:23;4.10;;;1.13;;
15120;SDS011;7661;48.904;9.414;2022-07-10T16:05:50;2.60;;;0.80;;
15120;SDS011;7661;48.904;9.414;2022-07-10T16:08:19;2.73;;;0.93;;
15120;SDS011;7661;48.904;9.414;2022-07-10T16:10:46;3.63;;;1.03;;
15120;SDS011;7661;48.904;9.414;2022-07-10T16:13:14;5.13;;;1.30;;
15120;SDS011;7661;48.904;9.414;2022-07-10T16:15:40;3.80;;;1.40;;
15120;SDS011;7661;48.904;9.414;2022-07-10T16:18:07;3.03;;;0.97;;
15120;SDS011;7661;48.904;9.414;2022-07-10T16:20:34;2.87;;;1.10;;
15120;SDS011;7661;48.904;9.414;2022-07-10T16:23:02;3.20;;;1.10;;
15120;SDS011;7661;48.904;9.414;2022-07-10T16:25:31;5.00;;;1.20;;
15120;SDS011;7661;48.904;9.414;2022-07-10T16:28:16;14.93;;;1.60;;
15120;SDS011;7661;48.904;9.414;2022-07-10T16:30:43;3.10;;;1.00;;
15120;SDS011;7661;48.904;9.414;2022-07-10T16:33:10;3.70;;;1.27;;
15120;SDS011;7661;48.904;9.414;2022-07-10T16:35:37;4.70;;;1.23;;
15120;SDS011;7661;48.904;9.414;2022-07-10T16:38:04;3.23;;;1.33;;
15120;SDS011;7661;48.904;9.414;2022-07-10T16:40:33;3.23;;;1.00;;